Time;durP1;ratioP1;P1;durP2;ratioP2;P2;SDS_P1;SDS_P2;PMS_P1;PMS_P2;Temp;Humidity;BMP_temperature;BMP_pressure;BME280_temperature;BME280_humidity;BME280_pressure;Samples;Min_cycle;Max_cycle;Signal;HPM_P1;HPM_P2
2021/04/02 00:00:50;;;;;;;18.17;7.88;;;;;;;;;;5008955;28;20105;-76
2021/04/02 00:03:29;;;;;;;15.48;6.70;;;;;;;;;;5007185;28;20041;-76
2021/04/02 00:06:06;;;;;;;21.73;13.00;;;;;;;;;;5001463;28;20040;-76
2021/04/02 00:08:34;;;;;;;18.98;8.80;;;;;;;;;;5024988;28;20179;-76
2021/04/02 00:11:05;;;;;;;12.77;5.38;;;;;;;;;;5006431;28;20401;-76
2021/04/02 00:13:52;;;;;;;18.33;8.68;;;;;;;;;;5010452;28;20779;-76
2021/04/02 00:16:21;;;;;;;15.73;7.47;;;;;;;;;;5015400;28;20036;-77
2021/04/02 00:18:50;;;;;;;13.25;5.68;;;;;;;;;;5003714;28;20290;-77
2021/04/02 00:21:17;;;;;;;14.00;5.55;;;;;;;;;;5007296;28;20041;-76
2021/04/02 00:23:46;;;;;;;11.82;5.15;;;;;;;;;;5017005;28;20048;-76
2021/04/02 00:26:15;;;;;;;11.23;4.53;;;;;;;;;;5006456;28;20048;-77
2021/04/02 00:28:44;;;;;;;12.93;5.18;;;;;;;;;;5015160;28;20512;-76
2021/04/02 00:31:12;;;;;;;11.48;4.10;;;;;;;;;;5013175;28;20030;-76
2021/04/02 00:33:43;;;;;;;11.60;3.35;;;;;;;;;;5010888;28;20030;-78
2021/04/02 00:36:10;;;;;;;12.73;4.15;;;;;;;;;;4999196;28;20110;-78
2021/04/02 00:38:38;;;;;;;13.48;4.82;;;;;;;;;;5002256;28;20033;-78
2021/04/02 00:41:14;;;;;;;11.20;4.60;;;;;;;;;;5013912;28;20032;-75
2021/04/02 00:43:42;;;;;;;11.98;4.22;;;;;;;;;;4980381;28;20044;-75
2021/04/02 00:46:10;;;;;;;13.10;4.43;;;;;;;;;;5010469;28;20408;-77
2021/04/02 00:48:40;;;;;;;12.90;4.07;;;;;;;;;;5000718;28;20076;-75
2021/04/02 00:51:12;;;;;;;10.82;4.22;;;;;;;;;;5000965;28;20048;-75
2021/04/02 00:53:41;;;;;;;13.60;4.68;;;;;;;;;;5004353;28;20134;-76
2021/04/02 00:56:10;;;;;;;11.27;4.10;;;;;;;;;;4995461;28;20033;-76
2021/04/02 00:58:43;;;;;;;11.85;4.45;;;;;;;;;;5003971;28;20049;-75
2021/04/02 01:01:11;;;;;;;9.85;3.92;;;;;;;;;;5008531;28;20036;-76
2021/04/02 01:03:40;;;;;;;9.82;3.58;;;;;;;;;;5017461;28;20045;-76
2021/04/02 01:06:10;;;;;;;11.27;4.03;;;;;;;;;;5017727;28;20043;-75
2021/04/02 01:08:38;;;;;;;11.52;3.78;;;;;;;;;;4995673;28;20075;-75
2021/04/02 01:11:10;;;;;;;10.68;3.30;;;;;;;;;;5022277;28;20148;-76
2021/04/02 01:13:42;;;;;;;9.25;3.38;;;;;;;;;;5030332;28;20492;-75
2021/04/02 01:16:09;;;;;;;9.27;3.42;;;;;;;;;;5014510;28;20071;-76
2021/04/02 01:18:56;;;;;;;11.68;3.47;;;;;;;;;;5020677;28;20120;-77
2021/04/02 01:21:41;;;;;;;11.52;3.60;;;;;;;;;;5013346;28;20075;-76
2021/04/02 01:24:28;;;;;;;10.43;2.80;;;;;;;;;;4976638;28;20041;-77
2021/04/02 01:27:14;;;;;;;8.57;3.05;;;;;;;;;;4967050;28;20042;-76
2021/04/02 01:29:54;;;;;;;13.68;3.25;;;;;;;;;;4968234;28;20104;-76
2021/04/02 01:32:25;;;;;;;9.38;2.45;;;;;;;;;;4975053;28;20514;-76
2021/04/02 01:35:10;;;;;;;13.20;2.90;;;;;;;;;;4963027;28;20053;-76
2021/04/02 01:37:41;;;;;;;12.57;3.85;;;;;;;;;;4976779;28;20029;-76
2021/04/02 01:40:12;;;;;;;8.50;2.92;;;;;;;;;;4960381;28;20057;-76
2021/04/02 01:42:52;;;;;;;9.73;3.60;;;;;;;;;;4967422;28;20075;-76
2021/04/02 01:45:20;;;;;;;10.55;3.45;;;;;;;;;;4969880;28;20061;-77
2021/04/02 01:47:54;;;;;;;14.85;3.85;;;;;;;;;;4982778;28;20034;-75
2021/04/02 01:50:22;;;;;;;14.05;3.95;;;;;;;;;;4961330;28;20042;-76
2021/04/02 01:52:51;;;;;;;11.07;3.80;;;;;;;;;;4958079;28;20068;-76
2021/04/02 01:55:18;;;;;;;12.38;3.25;;;;;;;;;;4981490;28;20133;-76
2021/04/02 01:57:48;;;;;;;14.82;4.30;;;;;;;;;;4952117;28;20042;-75
2021/04/02 02:00:24;;;;;;;11.63;3.83;;;;;;;;;;4956421;28;20037;-76
2021/04/02 02:02:54;;;;;;;11.68;3.70;;;;;;;;;;4950507;28;20046;-77
2021/04/02 02:05:24;;;;;;;12.70;3.40;;;;;;;;;;4993726;28;20054;-76
2021/04/02 02:07:54;;;;;;;9.20;3.15;;;;;;;;;;5011485;28;20788;-76
2021/04/02 02:10:26;;;;;;;10.02;3.35;;;;;;;;;;5016053;28;20135;-77
2021/04/02 02:12:55;;;;;;;11.23;3.20;;;;;;;;;;5019460;28;20501;-76
2021/04/02 02:15:22;;;;;;;10.23;3.25;;;;;;;;;;5013451;28;20528;-76
2021/04/02 02:17:57;;;;;;;9.90;2.90;;;;;;;;;;4998816;28;20034;-76
2021/04/02 02:20:25;;;;;;;11.23;3.13;;;;;;;;;;5004666;28;20037;-76
2021/04/02 02:22:56;;;;;;;10.20;3.10;;;;;;;;;;4993168;28;20119;-76
2021/04/02 02:25:26;;;;;;;8.93;2.90;;;;;;;;;;4997276;28;20029;-77
2021/04/02 02:27:53;;;;;;;10.23;3.30;;;;;;;;;;5013567;28;20033;-76
2021/04/02 02:30:25;;;;;;;9.27;2.80;;;;;;;;;;5016923;28;20061;-77
2021/04/02 02:32:53;;;;;;;9.38;2.83;;;;;;;;;;5009824;28;20059;-77
2021/04/02 02:35:21;;;;;;;10.05;3.00;;;;;;;;;;5008600;28;20037;-76
2021/04/02 02:37:51;;;;;;;9.88;3.10;;;;;;;;;;5013475;28;20033;-76
2021/04/02 02:40:35;;;;;;;8.80;2.88;;;;;;;;;;5005370;28;20029;-77
2021/04/02 02:43:04;;;;;;;9.93;3.17;;;;;;;;;;5013854;28;20072;-75
2021/04/02 02:45:34;;;;;;;9.80;3.22;;;;;;;;;;5036770;28;20037;-75
2021/04/02 02:48:06;;;;;;;9.57;3.05;;;;;;;;;;4983664;28;20830;-76
2021/04/02 02:50:39;;;;;;;10.18;3.42;;;;;;;;;;5011805;28;20031;-75
2021/04/02 02:53:07;;;;;;;10.88;3.83;;;;;;;;;;5012179;28;20131;-76
2021/04/02 02:55:36;;;;;;;8.82;3.05;;;;;;;;;;4997033;28;20038;-76
2021/04/02 02:58:04;;;;;;;11.85;3.47;;;;;;;;;;5019866;28;20484;-76
2021/04/02 03:00:37;;;;;;;11.35;3.50;;;;;;;;;;5031500;28;20041;-76
2021/04/02 03:03:13;;;;;;;8.45;3.05;;;;;;;;;;5022459;28;20042;-76
2021/04/02 03:05:43;;;;;;;10.10;3.13;;;;;;;;;;5019431;28;20041;-76
2021/04/02 03:08:15;;;;;;;8.80;2.97;;;;;;;;;;4998051;28;20684;-76
2021/04/02 03:10:42;;;;;;;10.18;3.90;;;;;;;;;;5026282;28;20059;-76
2021/04/02 03:13:10;;;;;;;7.93;2.97;;;;;;;;;;5012878;28;20037;-76
2021/04/02 03:15:58;;;;;;;8.75;3.10;;;;;;;;;;5024588;28;20065;-75
2021/04/02 03:18:28;;;;;;;9.30;3.00;;;;;;;;;;4974573;28;20563;-76
2021/04/02 03:20:56;;;;;;;10.45;3.15;;;;;;;;;;4953634;28;20038;-75
2021/04/02 03:23:24;;;;;;;9.27;3.17;;;;;;;;;;4959731;28;20438;-77
2021/04/02 03:25:53;;;;;;;8.75;3.00;;;;;;;;;;4956442;28;20053;-77
2021/04/02 03:28:23;;;;;;;9.75;3.17;;;;;;;;;;4972684;28;20140;-79
2021/04/02 03:30:50;;;;;;;10.35;4.22;;;;;;;;;;4935718;28;20041;-76
2021/04/02 03:33:39;;;;;;;9.23;3.55;;;;;;;;;;4968849;28;20667;-77
2021/04/02 03:36:09;;;;;;;11.25;3.90;;;;;;;;;;4940435;28;20039;-76
2021/04/02 03:38:38;;;;;;;11.20;3.92;;;;;;;;;;4950202;28;20039;-76
2021/04/02 03:41:10;;;;;;;8.55;3.03;;;;;;;;;;4916803;28;20044;-77
2021/04/02 03:43:40;;;;;;;12.15;4.05;;;;;;;;;;4939356;28;20676;-78
2021/04/02 03:46:09;;;;;;;9.32;3.50;;;;;;;;;;4952289;28;20505;-77
2021/04/02 03:48:42;;;;;;;10.27;3.38;;;;;;;;;;4953080;28;20117;-77
2021/04/02 03:51:13;;;;;;;11.02;3.97;;;;;;;;;;4935488;28;20613;-75
2021/04/02 03:53:49;;;;;;;11.68;4.00;;;;;;;;;;4949821;28;20034;-78
2021/04/02 03:56:18;;;;;;;9.35;3.63;;;;;;;;;;4959745;28;20042;-78
2021/04/02 03:58:48;;;;;;;9.93;3.28;;;;;;;;;;4968662;28;20050;-76
2021/04/02 04:01:25;;;;;;;9.52;3.20;;;;;;;;;;4961468;28;20038;-76
2021/04/02 04:03:53;;;;;;;11.18;4.00;;;;;;;;;;4968849;28;20087;-77
2021/04/02 04:06:22;;;;;;;11.52;3.28;;;;;;;;;;4990681;28;20127;-77
2021/04/02 04:08:51;;;;;;;11.77;3.40;;;;;;;;;;5015109;28;20037;-77
2021/04/02 04:11:19;;;;;;;9.02;3.10;;;;;;;;;;4979186;28;20052;-77
2021/04/02 04:13:48;;;;;;;10.38;3.35;;;;;;;;;;4997380;28;20040;-78
2021/04/02 04:16:19;;;;;;;7.80;2.47;;;;;;;;;;4994937;28;20627;-76
2021/04/02 04:18:49;;;;;;;10.13;2.70;;;;;;;;;;4998606;28;20065;-75
2021/04/02 04:21:17;;;;;;;11.40;2.42;;;;;;;;;;4984898;28;20191;-76
2021/04/02 04:23:46;;;;;;;7.82;2.08;;;;;;;;;;4997883;28;20106;-76
2021/04/02 04:26:15;;;;;;;9.05;2.38;;;;;;;;;;4996081;28;20888;-76
2021/04/02 04:28:43;;;;;;;6.53;2.00;;;;;;;;;;5013049;28;20033;-77
2021/04/02 04:31:11;;;;;;;8.23;2.50;;;;;;;;;;5013395;28;20076;-76
2021/04/02 04:33:40;;;;;;;7.95;2.30;;;;;;;;;;4989073;28;20099;-75
2021/04/02 04:36:08;;;;;;;6.32;2.50;;;;;;;;;;5011668;28;20045;-76
2021/04/02 04:38:38;;;;;;;9.73;2.38;;;;;;;;;;5019898;28;20542;-76
2021/04/02 04:41:17;;;;;;;7.55;2.40;;;;;;;;;;5007985;28;20045;-76
2021/04/02 04:43:45;;;;;;;9.85;3.40;;;;;;;;;;4997111;28;20046;-76
2021/04/02 04:46:12;;;;;;;8.00;2.40;;;;;;;;;;5002687;28;20036;-76
2021/04/02 04:48:41;;;;;;;8.52;2.60;;;;;;;;;;5015753;28;20453;-75
2021/04/02 04:51:10;;;;;;;8.90;2.63;;;;;;;;;;5000308;28;20067;-77
2021/04/02 04:53:41;;;;;;;9.70;2.90;;;;;;;;;;5006680;28;20655;-77
2021/04/02 04:56:10;;;;;;;10.02;2.60;;;;;;;;;;4996269;28;20033;-77
2021/04/02 04:58:41;;;;;;;9.35;2.80;;;;;;;;;;5013390;28;20175;-77
2021/04/02 05:01:11;;;;;;;13.30;3.13;;;;;;;;;;5015321;28;20119;-76
2021/04/02 05:03:39;;;;;;;14.15;3.20;;;;;;;;;;4995082;28;20872;-76
2021/04/02 05:06:07;;;;;;;9.05;3.08;;;;;;;;;;4999550;28;20037;-76
2021/04/02 05:08:45;;;;;;;14.00;2.95;;;;;;;;;;4997774;28;20568;-76
2021/04/02 05:11:13;;;;;;;12.35;3.25;;;;;;;;;;5008466;28;20128;-76
2021/04/02 05:13:43;;;;;;;10.82;3.20;;;;;;;;;;5013650;28;21964;-76
2021/04/02 05:16:13;;;;;;;11.15;3.42;;;;;;;;;;5017523;28;20092;-76
2021/04/02 05:18:40;;;;;;;10.43;3.30;;;;;;;;;;5006291;28;20034;-77
2021/04/02 05:21:10;;;;;;;10.35;3.92;;;;;;;;;;4988208;28;20396;-76
2021/04/02 05:23:39;;;;;;;12.07;3.67;;;;;;;;;;5001188;28;20089;-76
2021/04/02 05:26:11;;;;;;;9.15;3.40;;;;;;;;;;5004844;28;20049;-76
2021/04/02 05:28:40;;;;;;;11.80;3.92;;;;;;;;;;4991369;28;20044;-78
2021/04/02 05:31:09;;;;;;;13.57;3.83;;;;;;;;;;5003629;28;20083;-76
2021/04/02 05:33:36;;;;;;;13.20;4.30;;;;;;;;;;4994331;28;20041;-76
2021/04/02 05:36:02;;;;;;;12.35;4.15;;;;;;;;;;5008904;28;20048;-76
2021/04/02 05:38:29;;;;;;;;;;;;;;;;;;5017328;28;20037;-77
2021/04/02 05:40:55;;;;;;;11.95;4.00;;;;;;;;;;5030894;28;19913;-76
2021/04/02 05:43:37;;;;;;;12.27;4.60;;;;;;;;;;5013812;28;20078;-77
2021/04/02 05:46:08;;;;;;;12.20;4.55;;;;;;;;;;5018807;28;20075;-77
2021/04/02 05:48:36;;;;;;;12.82;4.53;;;;;;;;;;4988055;28;20044;-77
2021/04/02 05:51:03;;;;;;;12.77;4.32;;;;;;;;;;5008297;28;20160;-77
2021/04/02 05:53:31;;;;;;;12.20;4.60;;;;;;;;;;5014160;28;20444;-77
2021/04/02 05:56:01;;;;;;;12.55;4.80;;;;;;;;;;4998552;28;20033;-77
2021/04/02 05:58:29;;;;;;;18.33;6.85;;;;;;;;;;5011758;28;23747;-77
2021/04/02 06:00:56;;;;;;;17.00;7.97;;;;;;;;;;4967795;28;20033;-77
2021/04/02 06:03:24;;;;;;;21.08;11.30;;;;;;;;;;5020826;28;20071;-76
2021/04/02 06:05:50;;;;;;;21.35;13.82;;;;;;;;;;5021293;28;20040;-77
2021/04/02 06:08:18;;;;;;;27.55;21.58;;;;;;;;;;4995120;28;20057;-76
2021/04/02 06:10:46;;;;;;;32.33;24.52;;;;;;;;;;5015874;28;20056;-77
2021/04/02 06:13:13;;;;;;;31.27;22.08;;;;;;;;;;5011465;28;21151;-78
2021/04/02 06:15:42;;;;;;;22.67;18.55;;;;;;;;;;5013100;28;20278;-77
2021/04/02 06:18:14;;;;;;;21.98;14.32;;;;;;;;;;5013447;28;20036;-78
2021/04/02 06:20:47;;;;;;;23.33;14.23;;;;;;;;;;4999193;28;20598;-78
2021/04/02 06:23:21;;;;;;;20.63;12.73;;;;;;;;;;5020982;28;20995;-78
2021/04/02 06:25:54;;;;;;;22.17;12.43;;;;;;;;;;4947384;28;20077;-78
2021/04/02 06:28:23;;;;;;;19.95;11.77;;;;;;;;;;4973379;28;20049;-81
2021/04/02 06:30:57;;;;;;;20.35;10.18;;;;;;;;;;4946111;28;20034;-77
2021/04/02 06:33:50;;;;;;;19.27;9.93;;;;;;;;;;4972472;28;20058;-77
2021/04/02 06:36:29;;;;;;;18.42;8.20;;;;;;;;;;4951251;28;20505;-75
2021/04/02 06:39:02;;;;;;;14.90;6.80;;;;;;;;;;4964674;28;20061;-78
2021/04/02 06:41:31;;;;;;;17.77;6.47;;;;;;;;;;4970883;28;20073;-76
2021/04/02 06:43:59;;;;;;;16.17;6.07;;;;;;;;;;4973920;28;20176;-76
2021/04/02 06:46:31;;;;;;;13.13;4.82;;;;;;;;;;4963486;28;20109;-77
2021/04/02 06:49:15;;;;;;;15.73;5.40;;;;;;;;;;4990909;28;20504;-76
2021/04/02 06:51:44;;;;;;;11.77;4.85;;;;;;;;;;4981097;28;20110;-77
2021/04/02 06:54:14;;;;;;;15.70;4.82;;;;;;;;;;4992368;28;20033;-77
2021/04/02 06:57:04;;;;;;;12.90;4.10;;;;;;;;;;5008757;28;20029;-76
2021/04/02 06:59:36;;;;;;;14.38;4.82;;;;;;;;;;4989597;28;20040;-76
2021/04/02 07:02:04;;;;;;;14.93;4.90;;;;;;;;;;4985291;28;20117;-79
2021/04/02 07:04:33;;;;;;;12.23;4.90;;;;;;;;;;4990406;28;20034;-76
2021/04/02 07:07:04;;;;;;;14.77;4.95;;;;;;;;;;4975228;28;20298;-77
2021/04/02 07:09:32;;;;;;;13.60;4.90;;;;;;;;;;4956682;28;20081;-77
2021/04/02 07:12:05;;;;;;;13.38;4.63;;;;;;;;;;4987785;28;20120;-76
2021/04/02 07:14:32;;;;;;;11.85;4.57;;;;;;;;;;4977151;28;20129;-76
2021/04/02 07:17:21;;;;;;;12.23;3.85;;;;;;;;;;4970072;28;20128;-76
2021/04/02 07:19:50;;;;;;;17.55;4.15;;;;;;;;;;4951010;28;20046;-76
2021/04/02 07:22:17;;;;;;;11.98;3.83;;;;;;;;;;4957207;28;20046;-76
2021/04/02 07:24:45;;;;;;;13.00;3.90;;;;;;;;;;4957707;28;20045;-76
2021/04/02 07:27:13;;;;;;;13.50;4.15;;;;;;;;;;4934792;28;20038;-77
2021/04/02 07:29:52;;;;;;;13.45;3.92;;;;;;;;;;4955960;28;20487;-76
2021/04/02 07:32:20;;;;;;;14.27;4.03;;;;;;;;;;4957321;28;20049;-76
2021/04/02 07:34:49;;;;;;;11.98;3.80;;;;;;;;;;4939418;28;20038;-76
2021/04/02 07:37:19;;;;;;;13.25;3.90;;;;;;;;;;4963455;28;20493;-77
2021/04/02 07:39:48;;;;;;;11.18;4.13;;;;;;;;;;4959673;28;20034;-77
2021/04/02 07:42:20;;;;;;;14.45;4.60;;;;;;;;;;4925930;28;20043;-79
2021/04/02 07:44:53;;;;;;;13.77;4.10;;;;;;;;;;4938573;28;20041;-77
2021/04/02 07:47:22;;;;;;;12.50;4.03;;;;;;;;;;4948379;28;20636;-78
2021/04/02 07:49:49;;;;;;;15.15;4.30;;;;;;;;;;4950159;28;20125;-79
2021/04/02 07:52:17;;;;;;;12.65;4.05;;;;;;;;;;4956762;28;20054;-76
2021/04/02 07:54:46;;;;;;;12.25;3.90;;;;;;;;;;4955344;28;20045;-77
2021/04/02 07:57:13;;;;;;;11.88;4.30;;;;;;;;;;4932604;28;20038;-78
2021/04/02 07:59:49;;;;;;;13.00;4.40;;;;;;;;;;4973960;28;20161;-77
2021/04/02 08:02:29;;;;;;;11.90;4.22;;;;;;;;;;4960530;28;20038;-79
2021/04/02 08:05:19;;;;;;;14.90;4.50;;;;;;;;;;4964429;28;20045;-78
2021/04/02 08:07:47;;;;;;;11.55;4.05;;;;;;;;;;4960198;28;20046;-78
2021/04/02 08:10:17;;;;;;;11.57;3.60;;;;;;;;;;4986009;28;20041;-77
2021/04/02 08:12:46;;;;;;;12.50;4.35;;;;;;;;;;5018374;28;20206;-78
2021/04/02 08:15:16;;;;;;;12.63;4.18;;;;;;;;;;5009495;28;20037;-78
2021/04/02 08:17:43;;;;;;;11.52;4.30;;;;;;;;;;4989148;28;20400;-78
2021/04/02 08:20:13;;;;;;;16.25;3.75;;;;;;;;;;5013093;28;20040;-78
2021/04/02 08:22:40;;;;;;;12.32;3.92;;;;;;;;;;5017680;28;20715;-78
2021/04/02 08:25:11;;;;;;;12.38;3.65;;;;;;;;;;5006952;28;20467;-78
2021/04/02 08:27:40;;;;;;;13.30;4.80;;;;;;;;;;5006869;28;20049;-77
2021/04/02 08:30:09;;;;;;;14.05;4.75;;;;;;;;;;4997834;28;20037;-78
2021/04/02 08:32:51;;;;;;;14.98;6.80;;;;;;;;;;4974612;28;20579;-77
2021/04/02 08:35:21;;;;;;;17.45;7.85;;;;;;;;;;5003183;28;20049;-77
2021/04/02 08:38:01;;;;;;;12.90;5.57;;;;;;;;;;5016230;28;20037;-77
2021/04/02 08:40:30;;;;;;;12.38;5.10;;;;;;;;;;5016819;28;20029;-77
2021/04/02 08:43:05;;;;;;;16.20;5.03;;;;;;;;;;5030586;28;20060;-77
2021/04/02 08:45:37;;;;;;;10.45;3.83;;;;;;;;;;5036568;28;20278;-77
2021/04/02 08:48:09;;;;;;;11.15;3.60;;;;;;;;;;4998314;28;20057;-78
2021/04/02 08:50:47;;;;;;;11.23;3.80;;;;;;;;;;4998648;28;20047;-78
2021/04/02 08:53:16;;;;;;;13.00;4.18;;;;;;;;;;5014110;28;21408;-76
2021/04/02 08:55:45;;;;;;;13.35;4.30;;;;;;;;;;5001499;28;20051;-76
2021/04/02 08:58:13;;;;;;;13.15;4.25;;;;;;;;;;5029960;28;20028;-77
2021/04/02 09:00:41;;;;;;;12.30;4.18;;;;;;;;;;5032299;28;20119;-77
2021/04/02 09:03:07;;;;;;;12.85;4.63;;;;;;;;;;5006012;28;20103;-78
2021/04/02 09:05:36;;;;;;;10.10;3.78;;;;;;;;;;5009007;28;20275;-76
2021/04/02 09:08:04;;;;;;;14.65;4.35;;;;;;;;;;5018517;28;20162;-78
2021/04/02 09:10:34;;;;;;;13.18;4.47;;;;;;;;;;5014018;28;20032;-78
2021/04/02 09:13:01;;;;;;;15.52;4.28;;;;;;;;;;5026369;28;20068;-77
2021/04/02 09:15:31;;;;;;;11.82;3.58;;;;;;;;;;5033581;28;20025;-77
2021/04/02 09:18:14;;;;;;;12.18;3.90;;;;;;;;;;4988711;28;20664;-76
2021/04/02 09:20:43;;;;;;;16.33;4.38;;;;;;;;;;5023344;28;20029;-76
2021/04/02 09:23:10;;;;;;;15.07;4.00;;;;;;;;;;5023760;28;20499;-76
2021/04/02 09:25:50;;;;;;;11.52;3.90;;;;;;;;;;4989757;28;21069;-76
2021/04/02 09:28:29;;;;;;;11.90;3.90;;;;;;;;;;4997915;28;20723;-76
2021/04/02 09:34:18;;;;;;;11.02;3.67;;;;;;;;;;4998685;28;20119;-79
2021/04/02 09:36:47;;;;;;;14.38;3.70;;;;;;;;;;4997619;28;20041;-80
2021/04/02 09:39:24;;;;;;;12.50;3.90;;;;;;;;;;4969943;28;20056;-77
2021/04/02 09:41:59;;;;;;;12.55;3.75;;;;;;;;;;5011543;28;20763;-77
2021/04/02 09:44:38;;;;;;;17.25;4.18;;;;;;;;;;5012398;28;20045;-78
2021/04/02 09:47:09;;;;;;;13.35;4.13;;;;;;;;;;5008504;28;20037;-78
2021/04/02 09:49:37;;;;;;;13.63;3.80;;;;;;;;;;5010875;28;20037;-78
2021/04/02 09:52:06;;;;;;;12.85;4.35;;;;;;;;;;5015211;28;20037;-79
2021/04/02 09:54:35;;;;;;;14.13;3.97;;;;;;;;;;5027809;28;20040;-78
2021/04/02 09:57:03;;;;;;;13.68;5.05;;;;;;;;;;4996511;28;20123;-78
2021/04/02 09:59:31;;;;;;;14.65;4.05;;;;;;;;;;5013329;28;20124;-77
2021/04/02 10:02:03;;;;;;;11.95;4.15;;;;;;;;;;5011559;28;20375;-78
2021/04/02 10:04:52;;;;;;;12.02;3.97;;;;;;;;;;4988099;28;20045;-77
2021/04/02 10:07:22;;;;;;;13.18;3.92;;;;;;;;;;4924559;28;20073;-77
2021/04/02 10:09:50;;;;;;;15.20;4.00;;;;;;;;;;4912742;28;20043;-78
2021/04/02 10:12:17;;;;;;;10.43;3.70;;;;;;;;;;4936048;28;20123;-79
2021/04/02 10:14:48;;;;;;;14.18;4.07;;;;;;;;;;4940930;28;20113;-78
2021/04/02 10:17:16;;;;;;;13.00;4.65;;;;;;;;;;4905471;28;20510;-78
2021/04/02 10:19:42;;;;;;;14.90;6.35;;;;;;;;;;4912750;28;20193;-77
2021/04/02 10:22:09;;;;;;;13.38;4.00;;;;;;;;;;4921575;28;20058;-76
2021/04/02 10:24:37;;;;;;;17.35;7.88;;;;;;;;;;4935052;28;20141;-77
2021/04/02 10:27:05;;;;;;;12.02;5.18;;;;;;;;;;4903833;28;20050;-77
2021/04/02 10:29:32;;;;;;;26.05;17.75;;;;;;;;;;4905853;28;20069;-78
2021/04/02 10:32:00;;;;;;;16.77;11.35;;;;;;;;;;4928757;28;20035;-77
2021/04/02 10:34:29;;;;;;;15.45;6.28;;;;;;;;;;4905792;28;20026;-78
2021/04/02 10:36:57;;;;;;;10.52;4.20;;;;;;;;;;4920549;28;20157;-79
2021/04/02 10:39:26;;;;;;;10.60;3.88;;;;;;;;;;4921734;28;20049;-78
2021/04/02 10:41:53;;;;;;;10.27;3.97;;;;;;;;;;4939242;28;20890;-78
2021/04/02 10:44:21;;;;;;;9.90;3.88;;;;;;;;;;4944499;28;20041;-77
2021/04/02 10:46:50;;;;;;;11.52;4.30;;;;;;;;;;4908730;28;20039;-77
2021/04/02 10:49:18;;;;;;;13.77;4.15;;;;;;;;;;4924934;28;20657;-77
2021/04/02 10:51:45;;;;;;;11.85;4.07;;;;;;;;;;4914066;28;20808;-79
2021/04/02 10:54:13;;;;;;;11.32;4.03;;;;;;;;;;4949129;28;20034;-78
2021/04/02 10:56:40;;;;;;;9.48;3.88;;;;;;;;;;4964677;28;20097;-77
2021/04/02 10:59:11;;;;;;;10.50;3.83;;;;;;;;;;5011795;28;20025;-78
2021/04/02 11:01:39;;;;;;;14.93;4.18;;;;;;;;;;5009333;28;20051;-78
2021/04/02 11:04:07;;;;;;;12.18;4.13;;;;;;;;;;5013422;28;20032;-79
2021/04/02 11:06:35;;;;;;;11.90;4.18;;;;;;;;;;5029685;28;20994;-79
2021/04/02 11:09:01;;;;;;;13.05;4.40;;;;;;;;;;5011704;28;20262;-80
2021/04/02 11:11:30;;;;;;;13.02;3.80;;;;;;;;;;5008991;28;20060;-81
2021/04/02 11:14:01;;;;;;;12.15;4.32;;;;;;;;;;5005290;28;20037;-81
2021/04/02 11:16:53;;;;;;;10.95;4.25;;;;;;;;;;4997387;28;20144;-82
2021/04/02 11:19:20;;;;;;;16.42;4.65;;;;;;;;;;5021765;28;20044;-82
2021/04/02 11:21:49;;;;;;;12.13;4.35;;;;;;;;;;5032690;28;20068;-83
2021/04/02 11:24:19;;;;;;;12.35;4.13;;;;;;;;;;5006527;28;20041;-82
2021/04/02 11:26:46;;;;;;;13.45;4.90;;;;;;;;;;5025079;28;20033;-80
2021/04/02 11:29:16;;;;;;;12.23;4.50;;;;;;;;;;5031178;28;20037;-83
2021/04/02 11:31:43;;;;;;;15.13;6.90;;;;;;;;;;5022769;28;20180;-80
2021/04/02 11:34:10;;;;;;;13.32;5.07;;;;;;;;;;5014088;28;20044;-81
2021/04/02 11:36:40;;;;;;;13.93;5.03;;;;;;;;;;5019453;28;20029;-82
2021/04/02 11:39:08;;;;;;;13.30;4.85;;;;;;;;;;5015337;28;20161;-81
2021/04/02 11:41:34;;;;;;;11.75;4.93;;;;;;;;;;5022684;28;20759;-81
2021/04/02 11:44:01;;;;;;;12.45;5.95;;;;;;;;;;5003888;28;20048;-82
2021/04/02 11:46:27;;;;;;;12.98;4.78;;;;;;;;;;4998445;28;20170;-83
2021/04/02 11:48:54;;;;;;;13.07;5.07;;;;;;;;;;5029338;28;20029;-82
2021/04/02 11:51:21;;;;;;;13.18;4.43;;;;;;;;;;5011150;28;20139;-80
2021/04/02 11:53:51;;;;;;;10.88;4.13;;;;;;;;;;5016458;28;20613;-81
2021/04/02 11:56:18;;;;;;;10.57;4.13;;;;;;;;;;5008810;28;20049;-81
2021/04/02 11:58:45;;;;;;;12.25;4.55;;;;;;;;;;5010812;28;20044;-80
2021/04/02 12:01:11;;;;;;;14.30;5.70;;;;;;;;;;5018874;28;20037;-81
2021/04/02 12:03:39;;;;;;;15.00;6.55;;;;;;;;;;5016765;28;20029;-80
2021/04/02 12:06:09;;;;;;;11.10;4.68;;;;;;;;;;4988803;28;20057;-81
2021/04/02 12:08:36;;;;;;;11.35;3.97;;;;;;;;;;4998591;28;20045;-82
2021/04/02 12:11:05;;;;;;;11.25;3.88;;;;;;;;;;5014345;28;20041;-81
2021/04/02 12:13:33;;;;;;;11.32;4.10;;;;;;;;;;4999888;28;20037;-81
2021/04/02 12:16:01;;;;;;;11.63;3.90;;;;;;;;;;5019741;28;20029;-82
2021/04/02 12:18:28;;;;;;;10.35;3.60;;;;;;;;;;4981757;28;20120;-81
2021/04/02 12:20:55;;;;;;;10.85;4.07;;;;;;;;;;5000502;28;20056;-81
2021/04/02 12:23:22;;;;;;;11.48;3.50;;;;;;;;;;5024818;28;20154;-81
2021/04/02 12:25:48;;;;;;;12.20;3.55;;;;;;;;;;5020032;28;20052;-80
2021/04/02 12:28:17;;;;;;;15.10;4.35;;;;;;;;;;5018147;28;20037;-83
2021/04/02 12:30:45;;;;;;;11.95;3.85;;;;;;;;;;5002212;28;20057;-82
2021/04/02 12:33:12;;;;;;;15.48;4.03;;;;;;;;;;4989315;28;20049;-80
2021/04/02 12:35:40;;;;;;;11.50;3.97;;;;;;;;;;5019978;28;20040;-81
2021/04/02 12:38:09;;;;;;;11.95;4.38;;;;;;;;;;4991779;28;20045;-83
2021/04/02 12:40:41;;;;;;;12.73;4.32;;;;;;;;;;5012560;28;20071;-82
2021/04/02 12:43:08;;;;;;;10.73;3.45;;;;;;;;;;5019702;28;20021;-82
2021/04/02 12:45:37;;;;;;;12.88;3.67;;;;;;;;;;5008226;28;20041;-81
2021/04/02 12:48:04;;;;;;;11.75;3.80;;;;;;;;;;5027579;28;20022;-83
2021/04/02 12:50:34;;;;;;;12.13;3.90;;;;;;;;;;5033761;28;20028;-83
2021/04/02 12:53:03;;;;;;;10.45;3.40;;;;;;;;;;5026236;28;20142;-82
2021/04/02 12:55:33;;;;;;;14.57;4.68;;;;;;;;;;5033787;28;20431;-82
2021/04/02 12:58:02;;;;;;;10.45;4.07;;;;;;;;;;5022288;28;20078;-82
2021/04/02 13:00:30;;;;;;;12.02;4.20;;;;;;;;;;5024859;28;20622;-83
2021/04/02 13:02:59;;;;;;;11.80;3.80;;;;;;;;;;5010070;28;20234;-81
2021/04/02 13:05:27;;;;;;;15.93;3.67;;;;;;;;;;5019045;28;20049;-83
2021/04/02 13:07:57;;;;;;;13.82;4.07;;;;;;;;;;5021386;28;20075;-83
2021/04/02 13:10:25;;;;;;;11.88;3.67;;;;;;;;;;5021259;28;20077;-83
2021/04/02 13:12:53;;;;;;;13.73;4.45;;;;;;;;;;5020920;28;20044;-82
2021/04/02 13:15:22;;;;;;;10.55;3.45;;;;;;;;;;4999248;28;20152;-83
2021/04/02 13:17:52;;;;;;;15.25;4.10;;;;;;;;;;5009607;28;20548;-83
2021/04/02 13:20:21;;;;;;;13.48;4.20;;;;;;;;;;5010430;28;20052;-83
2021/04/02 13:22:49;;;;;;;13.70;4.10;;;;;;;;;;5022589;28;20048;-82
2021/04/02 13:25:16;;;;;;;13.95;4.10;;;;;;;;;;5021726;28;20030;-84
2021/04/02 13:27:43;;;;;;;12.35;4.03;;;;;;;;;;5007544;28;20040;-83
2021/04/02 13:30:12;;;;;;;14.27;4.70;;;;;;;;;;5011618;28;20040;-82
2021/04/02 13:32:46;;;;;;;12.98;4.30;;;;;;;;;;5025798;28;20501;-81
2021/04/02 13:35:18;;;;;;;12.57;3.67;;;;;;;;;;4969385;28;21020;-83
2021/04/02 13:37:45;;;;;;;12.85;3.53;;;;;;;;;;5000083;28;20119;-83
2021/04/02 13:40:18;;;;;;;14.55;4.72;;;;;;;;;;5024248;28;20886;-83
2021/04/02 13:42:45;;;;;;;11.05;3.40;;;;;;;;;;5022983;28;20124;-83
2021/04/02 13:45:14;;;;;;;11.90;3.75;;;;;;;;;;5013920;28;20045;-83
2021/04/02 13:47:45;;;;;;;13.63;3.70;;;;;;;;;;5019975;28;20060;-83
2021/04/02 13:50:14;;;;;;;12.80;3.97;;;;;;;;;;5018650;28;20054;-82
2021/04/02 13:52:43;;;;;;;12.77;3.13;;;;;;;;;;5019099;28;20084;-82
2021/04/02 13:55:16;;;;;;;9.73;3.10;;;;;;;;;;5036229;28;20082;-83
2021/04/02 13:57:43;;;;;;;13.30;4.13;;;;;;;;;;5052816;28;20059;-81
2021/04/02 14:00:11;;;;;;;12.35;3.28;;;;;;;;;;5009164;28;20080;-81
2021/04/02 14:02:40;;;;;;;12.77;2.95;;;;;;;;;;4986925;28;20128;-81
2021/04/02 14:05:12;;;;;;;9.90;2.92;;;;;;;;;;5018121;28;20055;-81
2021/04/02 14:07:40;;;;;;;11.65;3.58;;;;;;;;;;5013581;28;20143;-80
2021/04/02 14:10:11;;;;;;;9.90;3.05;;;;;;;;;;5012964;28;20025;-80
2021/04/02 14:12:40;;;;;;;11.05;3.10;;;;;;;;;;5006858;28;20139;-80
2021/04/02 14:15:12;;;;;;;10.82;3.40;;;;;;;;;;5024863;28;20140;-81
2021/04/02 14:17:44;;;;;;;10.48;3.35;;;;;;;;;;5020046;28;20056;-81
2021/04/02 14:20:22;;;;;;;10.38;3.47;;;;;;;;;;5013894;28;20036;-81
2021/04/02 14:22:49;;;;;;;12.13;3.38;;;;;;;;;;5020968;28;20132;-81
2021/04/02 14:25:17;;;;;;;9.80;3.15;;;;;;;;;;5012955;28;20028;-81
2021/04/02 14:27:47;;;;;;;9.68;2.63;;;;;;;;;;4989836;28;20124;-81
2021/04/02 14:30:21;;;;;;;11.27;3.25;;;;;;;;;;5004339;28;21923;-80
2021/04/02 14:32:49;;;;;;;11.55;3.25;;;;;;;;;;5021281;28;20858;-80
2021/04/02 14:35:21;;;;;;;11.27;2.80;;;;;;;;;;5007646;28;20132;-80
2021/04/02 14:37:50;;;;;;;11.50;3.38;;;;;;;;;;5028078;28;20041;-80
2021/04/02 14:40:20;;;;;;;13.77;3.95;;;;;;;;;;5028177;28;20064;-81
2021/04/02 14:42:49;;;;;;;12.38;3.90;;;;;;;;;;5016284;28;20045;-80
2021/04/02 14:45:37;;;;;;;12.07;3.10;;;;;;;;;;5019055;28;20044;-80
2021/04/02 14:48:05;;;;;;;10.20;3.38;;;;;;;;;;5011134;28;20047;-80
2021/04/02 14:50:34;;;;;;;9.82;3.47;;;;;;;;;;5005640;28;20185;-80
2021/04/02 14:53:04;;;;;;;10.82;2.90;;;;;;;;;;4985295;28;20055;-80